createdAt,value
2022-07-28T00:00:25.216Z,52.13
2022-07-28T00:01:26.921Z,52.00
2022-07-28T00:02:29.645Z,52.17
2022-07-28T00:03:31.398Z,51.92
2022-07-28T00:04:34.595Z,52.10
2022-07-28T00:05:36.302Z,52.03
2022-07-28T00:06:40.222Z,52.12
2022-07-28T00:07:41.860Z,52.01
2022-07-28T00:08:44.380Z,52.08
2022-07-28T00:09:46.036Z,51.96
2022-07-28T00:10:48.636Z,52.09
2022-07-28T00:11:54.298Z,52.08
2022-07-28T00:12:57.388Z,51.94
2022-07-28T00:13:59.091Z,52.00
2022-07-28T00:15:02.057Z,52.01
2022-07-28T00:16:04.090Z,51.89
2022-07-28T00:17:06.815Z,51.87
2022-07-28T00:18:08.499Z,52.07
2022-07-28T00:19:11.109Z,52.00
2022-07-28T00:20:14.161Z,51.80
2022-07-28T00:21:15.907Z,52.00
2022-07-28T00:22:19.945Z,52.06
2022-07-28T00:23:21.571Z,52.11
2022-07-28T00:24:24.393Z,51.81
2022-07-28T00:25:26.363Z,51.90
2022-07-28T00:26:28.972Z,51.96
2022-07-28T00:27:30.511Z,52.02
2022-07-28T00:28:33.116Z,51.96
2022-07-28T00:29:49.211Z,51.82
2022-07-28T00:30:55.203Z,51.91
2022-07-28T00:31:56.964Z,51.89
2022-07-28T00:32:59.500Z,51.87
2022-07-28T00:34:01.123Z,52.03
2022-07-28T00:35:03.913Z,52.03
2022-07-28T00:36:11.439Z,51.94
2022-07-28T00:37:15.147Z,51.98
2022-07-28T00:38:18.279Z,51.76
2022-07-28T00:39:20.934Z,51.93
2022-07-28T00:40:22.561Z,52.01
2022-07-28T00:41:25.235Z,51.89
2022-07-28T00:42:26.875Z,51.90
2022-07-28T00:43:29.649Z,51.90
2022-07-28T00:44:32.704Z,51.97
2022-07-28T00:45:34.457Z,52.01
2022-07-28T00:46:37.620Z,51.98
2022-07-28T00:47:39.289Z,51.95
2022-07-28T00:48:45.873Z,51.92
2022-07-28T00:49:50.241Z,51.95
2022-07-28T00:50:52.641Z,51.96
2022-07-28T00:51:55.534Z,51.93
2022-07-28T00:52:58.161Z,51.82
2022-07-28T00:54:02.320Z,51.94
2022-07-28T00:55:05.359Z,51.88
2022-07-28T00:56:08.670Z,51.99
2022-07-28T00:57:10.278Z,51.95
2022-07-28T00:58:13.432Z,52.00
2022-07-28T00:59:15.027Z,52.09
2022-07-28T01:00:17.860Z,51.82
2022-07-28T01:01:20.158Z,51.92
2022-07-28T01:02:23.368Z,51.85
2022-07-28T01:03:26.247Z,52.02
2022-07-28T01:04:29.559Z,51.96
2022-07-28T01:05:44.108Z,52.17
2022-07-28T01:07:03.532Z,51.83
2022-07-28T01:08:13.264Z,52.07
2022-07-28T01:09:32.392Z,52.07
2022-07-28T01:10:45.120Z,52.12
2022-07-28T01:11:59.009Z,52.28
2022-07-28T01:13:07.002Z,52.26
2022-07-28T01:14:12.433Z,52.31
2022-07-28T01:15:21.245Z,52.25
2022-07-28T01:16:24.338Z,52.19
2022-07-28T01:17:32.989Z,52.13
2022-07-28T01:18:44.549Z,52.31
2022-07-28T01:19:50.448Z,52.49
2022-07-28T01:20:56.043Z,52.48
2022-07-28T01:22:00.430Z,52.63
2022-07-28T01:23:14.265Z,52.71
2022-07-28T01:24:24.943Z,52.70
2022-07-28T01:25:40.100Z,52.60
2022-07-28T01:27:00.666Z,52.73
2022-07-28T01:28:16.074Z,52.69
2022-07-28T01:29:32.230Z,52.92
2022-07-28T01:30:42.127Z,52.48
2022-07-28T01:31:48.461Z,53.03
2022-07-28T01:32:58.578Z,52.97
2022-07-28T01:34:08.103Z,53.03
2022-07-28T01:35:15.018Z,52.96
2022-07-28T01:36:20.012Z,53.08
2022-07-28T01:37:27.607Z,53.22
2022-07-28T01:38:32.900Z,53.27
2022-07-28T01:39:37.640Z,53.27
2022-07-28T01:40:43.926Z,53.27
2022-07-28T01:41:47.591Z,53.34
2022-07-28T01:42:53.479Z,53.40
2022-07-28T01:43:58.840Z,53.53
2022-07-28T01:45:03.060Z,53.61
2022-07-28T01:46:07.300Z,53.70
2022-07-28T01:47:11.632Z,53.72
2022-07-28T01:48:16.929Z,53.61
2022-07-28T01:49:22.248Z,53.69
2022-07-28T01:50:26.458Z,53.63
2022-07-28T01:51:31.355Z,53.82
2022-07-28T01:52:34.669Z,53.84
2022-07-28T01:53:39.254Z,53.86
2022-07-28T01:54:45.549Z,53.85
2022-07-28T01:55:51.422Z,53.92
2022-07-28T01:56:55.662Z,54.20
2022-07-28T01:57:59.066Z,54.04
2022-07-28T01:59:06.077Z,54.05
2022-07-28T02:00:12.112Z,54.17
2022-07-28T02:01:18.158Z,54.13
2022-07-28T02:02:22.465Z,54.18
2022-07-28T02:03:26.631Z,54.29
2022-07-28T02:04:29.836Z,54.33
2022-07-28T02:05:34.617Z,54.32
2022-07-28T02:06:39.187Z,54.70
2022-07-28T02:07:43.282Z,54.47
2022-07-28T02:08:46.942Z,54.55
2022-07-28T02:09:50.814Z,54.61
2022-07-28T02:11:13.438Z,54.57
2022-07-28T02:12:18.645Z,54.51
2022-07-28T02:13:20.944Z,54.75
2022-07-28T02:14:25.750Z,54.80
2022-07-28T02:15:29.647Z,54.80
2022-07-28T02:16:33.660Z,54.76
2022-07-28T02:17:37.134Z,54.77
2022-07-28T02:18:40.840Z,54.85
2022-07-28T02:19:44.958Z,54.88
2022-07-28T02:20:47.711Z,54.94
2022-07-28T02:21:50.097Z,54.75
2022-07-28T02:22:54.300Z,55.03
2022-07-28T02:23:57.216Z,55.06
2022-07-28T02:25:00.110Z,55.04
2022-07-28T02:26:05.237Z,55.03
2022-07-28T02:27:11.725Z,55.11
2022-07-28T02:28:15.640Z,55.00
2022-07-28T02:29:49.262Z,55.16
2022-07-28T02:30:50.964Z,55.20
2022-07-28T02:32:01.214Z,55.09
2022-07-28T02:33:09.094Z,55.24
2022-07-28T02:34:14.898Z,55.15
2022-07-28T02:35:29.038Z,55.19
2022-07-28T02:36:41.353Z,55.35
2022-07-28T02:37:55.615Z,55.32
2022-07-28T02:39:02.928Z,55.26
2022-07-28T02:40:10.274Z,55.35
2022-07-28T02:41:16.315Z,55.46
2022-07-28T02:42:23.796Z,55.47
2022-07-28T02:43:48.970Z,55.57
2022-07-28T02:44:56.810Z,55.59
2022-07-28T02:46:11.250Z,55.63
2022-07-28T02:47:19.016Z,55.58
2022-07-28T02:48:27.142Z,55.68
2022-07-28T02:49:32.473Z,55.61
2022-07-28T02:50:35.417Z,55.64
2022-07-28T02:51:37.930Z,55.75
2022-07-28T02:52:43.972Z,55.80
2022-07-28T02:53:46.970Z,55.94
2022-07-28T02:54:51.906Z,55.94
2022-07-28T02:55:55.679Z,56.00
2022-07-28T02:56:59.099Z,56.05
2022-07-28T02:58:02.101Z,56.07
2022-07-28T02:59:10.138Z,56.11
2022-07-28T03:00:14.202Z,56.22
2022-07-28T03:01:18.845Z,56.33
2022-07-28T03:02:24.048Z,56.28
2022-07-28T03:03:26.303Z,56.39
2022-07-28T03:04:47.517Z,56.47
2022-07-28T03:05:50.838Z,56.56
2022-07-28T03:06:52.417Z,56.60
2022-07-28T03:07:56.544Z,56.40
2022-07-28T03:08:58.283Z,56.65
2022-07-28T03:10:01.620Z,56.74
2022-07-28T03:11:08.586Z,56.57
2022-07-28T03:12:11.931Z,56.76
2022-07-28T03:13:14.278Z,56.82
2022-07-28T03:14:17.047Z,56.89
2022-07-28T03:15:19.065Z,56.86
2022-07-28T03:16:21.659Z,57.00
2022-07-28T03:17:26.017Z,57.08
2022-07-28T03:18:29.055Z,56.98
2022-07-28T03:19:30.677Z,57.27
2022-07-28T03:20:33.522Z,57.33
2022-07-28T03:21:35.121Z,57.42
2022-07-28T03:22:37.791Z,57.30
2022-07-28T03:23:43.096Z,57.40
2022-07-28T03:24:48.961Z,57.49
2022-07-28T03:25:55.867Z,57.51
2022-07-28T03:27:02.451Z,57.58
2022-07-28T03:28:08.147Z,57.65
2022-07-28T03:29:11.143Z,57.73
2022-07-28T03:30:16.204Z,57.69
2022-07-28T03:31:20.540Z,57.76
2022-07-28T03:32:26.665Z,57.96
2022-07-28T03:33:29.946Z,57.90
2022-07-28T03:34:36.508Z,57.90
2022-07-28T03:35:43.533Z,58.02
2022-07-28T03:36:50.682Z,57.99
2022-07-28T03:37:55.989Z,58.04
2022-07-28T03:39:01.600Z,58.11
2022-07-28T03:40:04.869Z,58.28
2022-07-28T03:41:10.465Z,58.04
2022-07-28T03:42:12.834Z,58.05
2022-07-28T03:43:17.544Z,58.25
2022-07-28T03:44:27.769Z,58.14
2022-07-28T03:45:31.938Z,58.30
2022-07-28T03:46:34.029Z,58.37
2022-07-28T03:47:36.652Z,58.41
2022-07-28T03:48:39.958Z,58.32
2022-07-28T03:49:46.561Z,58.56
2022-07-28T03:50:48.383Z,58.64
2022-07-28T03:51:51.128Z,58.63
2022-07-28T03:52:53.800Z,58.68
2022-07-28T03:53:56.443Z,58.72
2022-07-28T03:54:58.107Z,58.63
2022-07-28T03:56:00.658Z,58.54
2022-07-28T03:57:02.319Z,58.80
2022-07-28T03:58:04.883Z,58.68
2022-07-28T03:59:06.545Z,58.87
2022-07-28T04:00:10.618Z,58.95
2022-07-28T04:01:15.372Z,59.00
2022-07-28T04:02:18.064Z,58.91
2022-07-28T04:03:42.429Z,58.83
2022-07-28T04:04:44.267Z,58.91
2022-07-28T04:05:47.358Z,58.73
2022-07-28T04:06:49.978Z,59.02
2022-07-28T04:07:52.582Z,58.81
2022-07-28T04:08:54.209Z,59.12
2022-07-28T04:09:56.723Z,59.10
2022-07-28T04:10:58.401Z,59.18
2022-07-28T04:12:00.905Z,59.46
2022-07-28T04:13:02.639Z,59.02
2022-07-28T04:14:05.449Z,58.92
2022-07-28T04:15:12.658Z,58.98
2022-07-28T04:16:15.249Z,58.88
2022-07-28T04:17:16.898Z,59.13
2022-07-28T04:18:19.547Z,59.12
2022-07-28T04:19:22.084Z,59.13
2022-07-28T04:20:26.398Z,59.13
2022-07-28T04:21:28.987Z,59.02
2022-07-28T04:22:30.563Z,59.06
2022-07-28T04:23:33.650Z,59.07
2022-07-28T04:24:35.237Z,59.16
2022-07-28T04:25:37.877Z,59.11
2022-07-28T04:26:41.864Z,59.16
2022-07-28T04:27:47.142Z,59.09
2022-07-28T04:28:48.762Z,59.30
2022-07-28T04:29:51.317Z,59.13
2022-07-28T04:30:53.394Z,59.25
2022-07-28T04:31:56.013Z,59.26
2022-07-28T04:32:58.234Z,59.29
2022-07-28T04:34:00.955Z,59.41
2022-07-28T04:35:02.624Z,59.31
2022-07-28T04:36:07.173Z,59.42
2022-07-28T04:37:12.664Z,59.34
2022-07-28T04:38:17.712Z,59.33
2022-07-28T04:39:20.302Z,59.40
2022-07-28T04:40:21.905Z,59.46
2022-07-28T04:41:24.440Z,59.40
2022-07-28T04:42:26.626Z,59.45
2022-07-28T04:43:29.267Z,59.49
2022-07-28T04:44:30.832Z,59.47
2022-07-28T04:45:33.579Z,59.56
2022-07-28T04:46:35.810Z,59.51
2022-07-28T04:47:38.877Z,59.62
2022-07-28T04:48:42.318Z,59.77
2022-07-28T04:49:44.109Z,59.74
2022-07-28T04:50:46.934Z,59.64
2022-07-28T04:51:51.721Z,59.58
2022-07-28T04:52:54.787Z,59.54
2022-07-28T04:53:56.372Z,59.54
2022-07-28T04:54:58.973Z,59.59
2022-07-28T04:56:00.573Z,59.60
2022-07-28T04:57:10.264Z,59.54
2022-07-28T04:58:13.014Z,59.47
2022-07-28T04:59:15.981Z,59.46
2022-07-28T05:00:18.669Z,59.46
2022-07-28T05:01:21.673Z,59.18
2022-07-28T05:02:23.674Z,59.40
2022-07-28T05:03:26.219Z,59.42
2022-07-28T05:04:27.937Z,59.46
2022-07-28T05:05:30.804Z,59.37
2022-07-28T05:06:32.380Z,59.37
2022-07-28T05:07:37.338Z,59.39
2022-07-28T05:08:39.936Z,59.44
2022-07-28T05:09:41.514Z,59.47
2022-07-28T05:10:44.082Z,59.50
2022-07-28T05:11:45.726Z,59.37
2022-07-28T05:12:49.219Z,59.38
2022-07-28T05:13:50.810Z,59.38
2022-07-28T05:14:53.442Z,59.31
2022-07-28T05:15:56.054Z,59.31
2022-07-28T05:16:57.691Z,59.40
2022-07-28T05:18:01.118Z,59.30
2022-07-28T05:19:03.416Z,59.23
2022-07-28T05:20:08.416Z,59.25
2022-07-28T05:21:10.160Z,59.15
2022-07-28T05:22:12.705Z,59.18
2022-07-28T05:23:17.529Z,59.13
2022-07-28T05:24:20.238Z,59.06
2022-07-28T05:25:23.481Z,59.01
2022-07-28T05:26:26.834Z,58.91
2022-07-28T05:27:28.488Z,59.02
2022-07-28T05:28:31.253Z,58.88
2022-07-28T05:29:37.655Z,58.75
2022-07-28T05:30:50.139Z,58.51
2022-07-28T05:31:52.020Z,58.43
2022-07-28T05:32:59.140Z,58.04
2022-07-28T05:34:00.757Z,57.83
2022-07-28T05:35:03.390Z,57.67
2022-07-28T05:36:06.676Z,57.39
2022-07-28T05:37:08.809Z,57.28
2022-07-28T05:38:11.769Z,57.30
2022-07-28T05:39:16.040Z,56.94
2022-07-28T05:40:19.095Z,56.62
2022-07-28T05:41:20.714Z,56.68
2022-07-28T05:42:25.440Z,56.42
2022-07-28T05:43:26.997Z,56.16
2022-07-28T05:44:30.295Z,56.14
2022-07-28T05:45:34.285Z,55.88
2022-07-28T05:46:36.873Z,55.74
2022-07-28T05:47:43.791Z,55.57
2022-07-28T05:48:46.860Z,55.16
2022-07-28T05:49:48.568Z,54.96
2022-07-28T05:50:52.170Z,54.87
2022-07-28T05:51:53.804Z,54.78
2022-07-28T05:52:56.450Z,55.11
2022-07-28T05:53:58.141Z,54.77
2022-07-28T05:55:02.098Z,54.65
2022-07-28T05:56:04.994Z,54.15
2022-07-28T05:57:06.737Z,54.19
2022-07-28T05:58:09.286Z,54.02
2022-07-28T05:59:10.918Z,53.96
2022-07-28T06:00:16.296Z,53.44
2022-07-28T06:01:17.957Z,53.16
2022-07-28T06:02:20.675Z,53.34
2022-07-28T06:03:22.281Z,53.30
2022-07-28T06:04:26.109Z,53.00
2022-07-28T06:05:30.730Z,52.77
2022-07-28T06:06:33.301Z,52.75
2022-07-28T06:07:42.974Z,52.67
2022-07-28T06:08:48.143Z,52.55
2022-07-28T06:09:49.794Z,52.32
2022-07-28T06:11:01.949Z,52.20
2022-07-28T06:12:05.446Z,52.60
2022-07-28T06:13:07.008Z,52.21
2022-07-28T06:14:09.555Z,52.13
2022-07-28T06:15:13.690Z,51.96
2022-07-28T06:16:16.566Z,52.41
2022-07-28T06:17:18.439Z,52.11
2022-07-28T06:18:22.169Z,51.91
2022-07-28T06:19:24.779Z,52.08
2022-07-28T06:20:27.810Z,51.56
2022-07-28T06:21:32.841Z,51.65
2022-07-28T06:22:41.169Z,51.52
2022-07-28T06:23:43.787Z,51.40
2022-07-28T06:24:45.401Z,51.17
2022-07-28T06:25:49.063Z,51.14
2022-07-28T06:26:53.370Z,51.17
2022-07-28T06:27:57.806Z,50.74
2022-07-28T06:29:00.414Z,51.20
2022-07-28T06:30:02.013Z,50.62
2022-07-28T06:31:04.664Z,50.60
2022-07-28T06:32:06.816Z,51.07
2022-07-28T06:33:12.784Z,50.51
2022-07-28T06:34:19.413Z,50.96
2022-07-28T06:35:25.890Z,50.62
2022-07-28T06:36:27.517Z,50.89
2022-07-28T06:37:30.153Z,50.92
2022-07-28T06:38:32.910Z,50.96
2022-07-28T06:39:35.528Z,50.91
2022-07-28T06:40:37.427Z,50.98
2022-07-28T06:41:41.985Z,50.81
2022-07-28T06:42:45.627Z,50.98
2022-07-28T06:43:48.199Z,50.86
2022-07-28T06:44:59.059Z,50.99
2022-07-28T06:46:02.374Z,50.92
2022-07-28T06:47:05.037Z,50.34
2022-07-28T06:48:07.927Z,50.38
2022-07-28T06:49:10.706Z,50.28
2022-07-28T06:50:25.887Z,50.36
2022-07-28T06:51:29.810Z,50.09
2022-07-28T06:52:32.040Z,50.11
2022-07-28T06:53:34.937Z,49.47
2022-07-28T06:54:38.055Z,49.60
2022-07-28T06:55:41.238Z,49.61
2022-07-28T06:56:43.010Z,48.90
2022-07-28T06:57:54.243Z,48.95
2022-07-28T06:58:56.817Z,48.50
2022-07-28T06:59:58.472Z,48.40
2022-07-28T07:01:02.506Z,48.72
2022-07-28T07:02:04.348Z,48.66
2022-07-28T07:03:09.846Z,48.32
2022-07-28T07:04:11.884Z,48.46
2022-07-28T07:05:14.856Z,48.53
2022-07-28T07:06:16.447Z,48.18
2022-07-28T07:07:19.130Z,47.98
2022-07-28T07:08:20.884Z,47.71
2022-07-28T07:09:23.594Z,47.70
2022-07-28T07:10:25.332Z,47.67
2022-07-28T07:11:27.923Z,47.56
2022-07-28T07:12:29.811Z,47.62
2022-07-28T07:13:34.675Z,47.96
2022-07-28T07:14:36.352Z,47.59
2022-07-28T07:15:38.930Z,47.80
2022-07-28T07:16:40.737Z,47.67
2022-07-28T07:17:43.810Z,47.75
2022-07-28T07:18:55.941Z,47.80
2022-07-28T07:19:57.645Z,47.88
2022-07-28T07:21:00.243Z,47.99
2022-07-28T07:22:01.864Z,48.19
2022-07-28T07:23:04.477Z,48.08
2022-07-28T07:24:07.436Z,48.43
2022-07-28T07:25:11.193Z,48.06
2022-07-28T07:26:13.942Z,48.12
2022-07-28T07:27:15.648Z,48.07
2022-07-28T07:28:18.267Z,48.11
2022-07-28T07:29:22.802Z,48.20
2022-07-28T07:30:25.447Z,47.89
2022-07-28T07:31:28.155Z,47.95
2022-07-28T07:32:29.866Z,47.72
2022-07-28T07:33:32.461Z,47.68
2022-07-28T07:34:34.104Z,47.57
2022-07-28T07:35:37.797Z,47.55
2022-07-28T07:36:39.367Z,47.57
2022-07-28T07:37:42.006Z,47.70
2022-07-28T07:38:45.498Z,47.63
2022-07-28T07:39:48.032Z,47.68
2022-07-28T07:40:51.162Z,47.74
2022-07-28T07:41:52.791Z,47.84
2022-07-28T07:42:55.389Z,47.50
2022-07-28T07:43:56.960Z,47.79
2022-07-28T07:45:01.614Z,47.79
2022-07-28T07:46:04.325Z,47.84
2022-07-28T07:47:08.698Z,47.86
2022-07-28T07:48:12.846Z,47.76
2022-07-28T07:49:16.959Z,47.87
2022-07-28T07:50:19.771Z,47.95
2022-07-28T07:51:22.856Z,48.19
2022-07-28T07:52:25.392Z,48.14
2022-07-28T07:53:28.044Z,48.16
2022-07-28T07:54:29.698Z,48.16
2022-07-28T07:55:37.334Z,48.05
2022-07-28T07:56:39.537Z,48.15
2022-07-28T07:57:42.309Z,48.13
2022-07-28T07:58:43.953Z,48.03
2022-07-28T07:59:46.498Z,48.06
2022-07-28T08:00:50.586Z,47.90
2022-07-28T08:01:54.745Z,47.94
2022-07-28T08:02:57.753Z,47.57
2022-07-28T08:04:00.930Z,47.65
2022-07-28T08:05:03.785Z,47.60
2022-07-28T08:06:06.806Z,47.51
2022-07-28T08:07:10.857Z,47.41
2022-07-28T08:08:14.812Z,47.40
2022-07-28T08:09:18.668Z,47.44
2022-07-28T08:10:20.299Z,47.52
2022-07-28T08:11:23.026Z,47.43
2022-07-28T08:12:25.555Z,47.63
2022-07-28T08:13:29.826Z,47.71
2022-07-28T08:14:32.670Z,47.49
2022-07-28T08:15:35.795Z,47.54
2022-07-28T08:16:39.940Z,47.52
2022-07-28T08:17:41.677Z,47.36
2022-07-28T08:18:44.788Z,47.39
2022-07-28T08:19:46.448Z,47.37
2022-07-28T08:20:54.814Z,47.36
2022-07-28T08:21:56.400Z,47.44
2022-07-28T08:22:59.215Z,47.16
2022-07-28T08:24:01.846Z,46.97
2022-07-28T08:25:03.737Z,46.88
2022-07-28T08:26:06.467Z,46.95
2022-07-28T08:27:08.473Z,47.23
2022-07-28T08:28:11.453Z,47.24
2022-07-28T08:29:13.713Z,47.03
2022-07-28T08:30:23.035Z,46.67
2022-07-28T08:31:25.457Z,46.71
2022-07-28T08:32:29.418Z,46.79
2022-07-28T08:33:31.027Z,46.38
2022-07-28T08:34:34.123Z,46.38
2022-07-28T08:35:36.887Z,46.08
2022-07-28T08:36:38.481Z,46.03
2022-07-28T08:37:41.177Z,46.30
2022-07-28T08:38:42.965Z,46.16
2022-07-28T08:39:45.624Z,46.18
2022-07-28T08:40:49.967Z,46.00
2022-07-28T08:41:56.237Z,45.83
2022-07-28T08:43:03.798Z,45.91
2022-07-28T08:44:09.429Z,45.74
2022-07-28T08:45:11.988Z,45.82
2022-07-28T08:46:16.475Z,45.57
2022-07-28T08:47:20.578Z,45.87
2022-07-28T08:48:27.219Z,45.47
2022-07-28T08:49:31.035Z,45.52
2022-07-28T08:50:33.525Z,45.57
2022-07-28T08:51:38.767Z,45.60
2022-07-28T08:52:41.712Z,45.40
2022-07-28T08:53:49.650Z,45.39
2022-07-28T08:54:54.621Z,45.32
2022-07-28T08:56:01.219Z,45.30
2022-07-28T08:57:04.918Z,45.40
2022-07-28T08:58:07.325Z,45.14
2022-07-28T08:59:09.942Z,45.06
2022-07-28T09:00:13.789Z,44.81
2022-07-28T09:01:18.073Z,44.67
2022-07-28T09:02:21.514Z,44.73
2022-07-28T09:03:26.087Z,44.71
2022-07-28T09:04:29.031Z,44.71
2022-07-28T09:05:30.865Z,44.60
2022-07-28T09:06:33.617Z,44.82
2022-07-28T09:07:38.223Z,44.74
2022-07-28T09:08:40.871Z,44.52
2022-07-28T09:09:47.855Z,44.59
2022-07-28T09:10:50.950Z,44.44
2022-07-28T09:11:52.988Z,44.70
2022-07-28T09:12:55.779Z,44.63
2022-07-28T09:13:57.582Z,44.54
2022-07-28T09:15:02.087Z,44.37
2022-07-28T09:16:04.260Z,44.17
2022-07-28T09:17:06.964Z,44.22
2022-07-28T09:18:08.819Z,43.74
2022-07-28T09:19:12.797Z,43.59
2022-07-28T09:20:16.238Z,43.64
2022-07-28T09:21:19.154Z,43.57
2022-07-28T09:22:20.835Z,43.83
2022-07-28T09:23:41.798Z,43.49
2022-07-28T09:24:45.769Z,43.78
2022-07-28T09:25:48.451Z,43.74
2022-07-28T09:26:59.854Z,43.61
2022-07-28T09:28:08.784Z,43.56
2022-07-28T09:29:11.355Z,43.49
2022-07-28T09:30:13.214Z,43.68
2022-07-28T09:31:17.186Z,43.40
2022-07-28T09:32:21.502Z,43.42
2022-07-28T09:33:42.585Z,43.24
2022-07-28T09:34:51.890Z,43.29
2022-07-28T09:35:55.505Z,43.38
2022-07-28T09:36:58.160Z,43.51
2022-07-28T09:38:00.255Z,43.65
2022-07-28T09:39:02.899Z,43.62
2022-07-28T09:40:11.835Z,43.34
2022-07-28T09:41:18.607Z,43.17
2022-07-28T09:42:21.761Z,43.40
2022-07-28T09:43:32.168Z,43.35
2022-07-28T09:44:34.968Z,43.03
2022-07-28T09:45:36.700Z,42.90
2022-07-28T09:46:39.458Z,42.68
2022-07-28T09:47:41.403Z,42.43
2022-07-28T09:48:53.726Z,42.26
2022-07-28T09:49:58.030Z,42.34
2022-07-28T09:51:11.959Z,42.18
2022-07-28T09:52:14.669Z,42.22
2022-07-28T09:53:23.008Z,42.06
2022-07-28T09:54:26.245Z,41.91
2022-07-28T09:55:28.049Z,41.90
2022-07-28T09:56:32.471Z,41.65
2022-07-28T09:57:36.862Z,41.58
2022-07-28T09:58:42.051Z,41.45
2022-07-28T09:59:49.430Z,41.30
2022-07-28T10:01:04.195Z,41.33
2022-07-28T10:02:06.849Z,41.09
2022-07-28T10:03:11.505Z,40.83
2022-07-28T10:04:14.265Z,40.73
2022-07-28T10:05:17.444Z,40.35
2022-07-28T10:06:27.326Z,40.41
2022-07-28T10:07:34.433Z,40.45
2022-07-28T10:08:42.205Z,40.53
2022-07-28T10:09:58.283Z,40.22
2022-07-28T10:11:00.671Z,40.19
2022-07-28T10:12:21.664Z,40.46
2022-07-28T10:13:23.378Z,40.71
2022-07-28T10:14:33.708Z,40.55
2022-07-28T10:15:55.716Z,40.47
2022-07-28T10:17:05.883Z,40.85
2022-07-28T10:18:07.998Z,40.48
2022-07-28T10:19:15.334Z,40.16
2022-07-28T10:20:19.046Z,40.05
2022-07-28T10:21:24.913Z,40.11
2022-07-28T10:22:28.797Z,40.25
2022-07-28T10:23:31.573Z,39.95
2022-07-28T10:24:39.949Z,39.90
2022-07-28T10:25:44.308Z,39.93
2022-07-28T10:26:48.649Z,39.44
2022-07-28T10:27:50.747Z,40.01
2022-07-28T10:28:55.077Z,39.78
2022-07-28T10:29:58.983Z,39.44
2022-07-28T10:31:03.759Z,39.96
2022-07-28T10:32:07.865Z,39.94
2022-07-28T10:33:14.991Z,39.35
2022-07-28T10:34:24.823Z,39.87
2022-07-28T10:35:30.086Z,39.82
2022-07-28T10:36:33.368Z,39.94
2022-07-28T10:37:39.844Z,39.79
2022-07-28T10:38:42.876Z,39.20
2022-07-28T10:39:49.339Z,39.14
2022-07-28T10:40:52.272Z,39.25
2022-07-28T10:41:57.255Z,38.91
2022-07-28T10:43:00.357Z,38.84
2022-07-28T10:44:03.954Z,39.06
2022-07-28T10:45:10.045Z,39.49
2022-07-28T10:46:16.041Z,39.02
2022-07-28T10:47:20.582Z,39.08
2022-07-28T10:48:23.648Z,39.34
2022-07-28T10:49:32.771Z,39.49
2022-07-28T10:50:37.048Z,39.06
2022-07-28T10:52:01.275Z,39.23
2022-07-28T10:53:06.949Z,39.32
2022-07-28T10:54:17.738Z,39.38
2022-07-28T10:55:37.227Z,39.18
2022-07-28T10:57:04.801Z,39.37
2022-07-28T10:58:14.428Z,40.01
2022-07-28T10:59:32.020Z,39.68
2022-07-28T11:00:53.066Z,39.67
2022-07-28T11:01:58.524Z,39.40
2022-07-28T11:03:02.254Z,39.61
2022-07-28T11:04:52.143Z,39.35
2022-07-28T11:05:56.470Z,39.80
2022-07-28T11:07:10.054Z,39.89
2022-07-28T11:08:30.152Z,39.77
2022-07-28T11:09:31.762Z,39.92
2022-07-28T11:10:46.657Z,40.17
2022-07-28T11:11:52.294Z,39.61
2022-07-28T11:12:56.409Z,39.87
2022-07-28T11:14:32.036Z,39.72
2022-07-28T11:15:36.145Z,40.36
2022-07-28T11:16:37.955Z,39.96
2022-07-28T11:17:57.391Z,40.28
2022-07-28T11:19:07.787Z,39.75
2022-07-28T11:21:08.666Z,39.91
2022-07-28T11:22:28.295Z,39.83
2022-07-28T11:23:46.695Z,39.70
2022-07-28T11:25:22.333Z,40.22
2022-07-28T11:26:30.774Z,40.16
2022-07-28T11:28:04.458Z,39.61
2022-07-28T11:29:16.565Z,39.60
2022-07-28T11:30:53.312Z,39.38
2022-07-28T11:32:06.312Z,40.01
2022-07-28T11:33:09.153Z,39.64
2022-07-28T11:34:11.970Z,39.78
2022-07-28T11:35:14.914Z,39.48
2022-07-28T11:36:18.830Z,39.61
2022-07-28T11:37:20.458Z,39.62
2022-07-28T11:38:23.774Z,39.78
2022-07-28T11:39:27.728Z,39.48
2022-07-28T11:40:31.295Z,39.44
2022-07-28T11:41:35.598Z,39.34
2022-07-28T11:42:37.319Z,39.31
2022-07-28T11:43:40.983Z,39.30
2022-07-28T11:44:43.869Z,39.47
2022-07-28T11:45:50.310Z,38.93
2022-07-28T11:47:17.096Z,39.10
2022-07-28T11:48:21.400Z,38.89
2022-07-28T11:49:27.403Z,39.14
2022-07-28T11:50:30.349Z,39.40
2022-07-28T11:51:38.809Z,38.98
2022-07-28T11:52:56.599Z,39.36
2022-07-28T11:53:58.246Z,39.38
2022-07-28T11:55:02.025Z,39.21
2022-07-28T11:56:05.145Z,38.95
2022-07-28T11:57:09.792Z,38.70
2022-07-28T11:58:25.526Z,38.65
2022-07-28T11:59:36.437Z,38.78
2022-07-28T12:00:39.509Z,39.00
2022-07-28T12:01:52.063Z,38.98
2022-07-28T12:02:54.712Z,39.31
2022-07-28T12:03:59.137Z,38.59
2022-07-28T12:05:10.937Z,39.09
2022-07-28T12:06:13.362Z,38.83
2022-07-28T12:07:18.413Z,38.39
2022-07-28T12:08:21.056Z,38.97
2022-07-28T12:09:37.068Z,38.25
2022-07-28T12:10:54.529Z,38.39
2022-07-28T12:11:57.163Z,38.90
2022-07-28T12:13:02.080Z,38.58
2022-07-28T12:14:05.375Z,38.64
2022-07-28T12:15:08.801Z,38.49
2022-07-28T12:16:11.065Z,38.34
2022-07-28T12:17:14.903Z,38.07
2022-07-28T12:18:17.905Z,38.38
2022-07-28T12:19:20.360Z,38.11
2022-07-28T12:20:23.175Z,38.22
2022-07-28T12:21:37.305Z,37.98
2022-07-28T12:22:58.266Z,38.46
2022-07-28T12:24:01.040Z,37.80
2022-07-28T12:25:04.397Z,38.36
2022-07-28T12:26:34.485Z,38.14
2022-07-28T12:27:45.902Z,37.79
2022-07-28T12:28:51.259Z,38.46
2022-07-28T12:29:57.553Z,37.58
2022-07-28T12:31:10.425Z,37.90
2022-07-28T12:32:13.025Z,38.06
2022-07-28T12:33:23.860Z,38.04
2022-07-28T12:34:30.280Z,37.59
2022-07-28T12:35:32.039Z,37.84
2022-07-28T12:36:35.516Z,38.03
2022-07-28T12:37:37.583Z,38.21
2022-07-28T12:38:41.581Z,38.16
2022-07-28T12:39:44.195Z,38.38
2022-07-28T12:40:48.016Z,38.15
2022-07-28T12:42:00.189Z,38.01
2022-07-28T12:43:03.069Z,37.68
2022-07-28T12:44:06.654Z,37.83
2022-07-28T12:45:10.226Z,38.51
2022-07-28T12:46:12.834Z,38.37
2022-07-28T12:47:15.607Z,38.10
2022-07-28T12:48:19.734Z,37.89
2022-07-28T12:49:22.002Z,38.24
2022-07-28T12:50:24.719Z,37.57
2022-07-28T12:51:34.170Z,38.17
2022-07-28T12:52:37.174Z,38.25
2022-07-28T12:53:52.823Z,38.17
2022-07-28T12:54:56.404Z,38.09
2022-07-28T12:56:02.431Z,37.96
2022-07-28T12:57:04.515Z,38.38
2022-07-28T12:58:08.154Z,37.95
2022-07-28T12:59:11.117Z,38.64
2022-07-28T13:00:14.356Z,38.11
2022-07-28T13:01:17.139Z,38.69
2022-07-28T13:02:37.071Z,38.43
2022-07-28T13:03:52.007Z,38.50
2022-07-28T13:04:56.422Z,37.78
2022-07-28T13:06:09.035Z,38.07
2022-07-28T13:07:13.737Z,38.59
2022-07-28T13:08:15.387Z,38.28
2022-07-28T13:09:32.663Z,37.95
2022-07-28T13:10:46.986Z,38.25
2022-07-28T13:11:49.713Z,37.51
2022-07-28T13:13:01.509Z,37.76
2022-07-28T13:14:04.449Z,37.18
2022-07-28T13:15:16.733Z,37.55
2022-07-28T13:16:20.944Z,36.88
2022-07-28T13:17:26.418Z,37.05
2022-07-28T13:18:39.745Z,36.88
2022-07-28T13:19:43.457Z,36.56
2022-07-28T13:20:50.272Z,36.84
2022-07-28T13:22:01.642Z,36.61
2022-07-28T13:23:05.534Z,37.21
2022-07-28T13:24:10.134Z,37.08
2022-07-28T13:25:15.063Z,36.60
2022-07-28T13:26:16.687Z,36.97
2022-07-28T13:27:19.272Z,37.08
2022-07-28T13:28:25.465Z,37.07
2022-07-28T13:29:28.191Z,36.31
2022-07-28T13:30:30.799Z,36.04
2022-07-28T13:31:35.600Z,36.52
2022-07-28T13:32:38.788Z,36.75
2022-07-28T13:33:45.368Z,36.22
2022-07-28T13:34:48.462Z,36.48
2022-07-28T13:35:50.409Z,36.64
2022-07-28T13:36:53.248Z,36.69
2022-07-28T13:37:54.875Z,36.16
2022-07-28T13:38:57.680Z,36.78
2022-07-28T13:40:00.603Z,36.71
2022-07-28T13:41:04.721Z,36.80
2022-07-28T13:42:07.794Z,36.58
2022-07-28T13:43:12.111Z,36.21
2022-07-28T13:44:14.898Z,36.36
2022-07-28T13:45:21.457Z,36.89
2022-07-28T13:46:24.993Z,36.74
2022-07-28T13:47:38.950Z,36.19
2022-07-28T13:48:57.913Z,36.16
2022-07-28T13:50:02.706Z,36.70
2022-07-28T13:51:04.347Z,36.19
2022-07-28T13:52:13.296Z,36.00
2022-07-28T13:53:16.085Z,36.51
2022-07-28T13:54:18.100Z,36.23
2022-07-28T13:55:22.954Z,36.23
2022-07-28T13:56:26.181Z,36.46
2022-07-28T13:57:28.767Z,36.87
2022-07-28T13:58:31.513Z,36.68
2022-07-28T13:59:36.125Z,36.99
2022-07-28T14:00:39.090Z,36.24